Time;durP1;ratioP1;P1;durP2;ratioP2;P2;SDS_P1;SDS_P2;PMS_P1;PMS_P2;Temp;Humidity;BMP_temperature;BMP_pressure;BME280_temperature;BME280_humidity;BME280_pressure;Samples;Min_cycle;Max_cycle;Signal;HPM_P1;HPM_P2
2021/06/20 00:01:26;;;;;;;33.23;7.10;;;25.80;99.90;;;;;;5079572;28;20501;-76
2021/06/20 00:03:52;;;;;;;17.97;6.87;;;25.80;99.90;;;;;;5079111;28;20176;-74
2021/06/20 00:06:38;;;;;;;24.60;6.83;;;25.80;99.90;;;;;;5072816;28;20498;-74
2021/06/20 00:09:11;;;;;;;19.83;7.70;;;25.90;99.90;;;;;;5072878;28;20179;-74
2021/06/20 00:11:39;;;;;;;12.73;6.27;;;26.00;99.90;;;;;;5074617;28;20512;-74
2021/06/20 00:14:07;;;;;;;16.90;6.83;;;26.00;99.90;;;;;;5072943;28;20427;-74
2021/06/20 00:16:36;;;;;;;11.27;6.27;;;26.10;99.90;;;;;;5073032;28;20494;-74
2021/06/20 00:19:04;;;;;;;13.00;6.20;;;26.10;99.90;;;;;;5086314;28;20427;-76
2021/06/20 00:21:40;;;;;;;10.87;6.50;;;26.10;99.90;;;;;;5077863;28;20443;-76
2021/06/20 00:24:10;;;;;;;13.77;6.67;;;26.00;99.90;;;;;;5072520;28;20903;-76
2021/06/20 00:26:35;;;;;;;17.67;7.40;;;26.10;99.90;;;;;;5072806;28;20417;-76
2021/06/20 00:29:01;;;;;;;20.30;6.87;;;26.10;99.90;;;;;;5073093;28;20451;-76
2021/06/20 00:31:28;;;;;;;15.60;6.30;;;26.10;99.90;;;;;;5093091;28;20939;-76
2021/06/20 00:33:58;;;;;;;14.33;6.30;;;26.10;99.90;;;;;;5093042;28;20817;-75
2021/06/20 00:36:23;;;;;;;16.40;6.63;;;26.20;99.90;;;;;;5092989;28;20535;-76
2021/06/20 00:38:51;;;;;;;11.63;6.90;;;26.30;99.90;;;;;;5093202;28;20490;-76
2021/06/20 00:41:17;;;;;;;16.20;7.07;;;26.30;99.90;;;;;;5088210;28;20170;-76
2021/06/20 00:43:46;;;;;;;28.90;7.07;;;26.30;99.90;;;;;;5089803;28;20426;-76
2021/06/20 00:46:11;;;;;;;9.77;6.67;;;26.30;99.90;;;;;;5072735;28;20523;-76
2021/06/20 00:48:52;;;;;;;20.80;7.50;;;26.40;99.90;;;;;;5072495;28;20484;-77
2021/06/20 00:51:18;;;;;;;18.50;7.43;;;26.40;99.90;;;;;;5071962;28;20564;-74
2021/06/20 00:53:44;;;;;;;18.17;7.07;;;26.50;99.90;;;;;;5087451;28;20457;-74
2021/06/20 00:56:12;;;;;;;14.60;7.57;;;;;;;;;;5092294;28;20203;-74
2021/06/20 00:58:39;;;;;;;13.83;6.90;;;26.50;99.90;;;;;;5091889;28;20394;-74
2021/06/20 01:01:05;;;;;;;15.30;6.30;;;;;;;;;;5086019;28;20453;-74
2021/06/20 01:03:31;;;;;;;14.07;6.63;;;26.60;99.90;;;;;;5090110;28;20402;-74
2021/06/20 01:05:57;;;;;;;17.80;7.07;;;26.60;99.90;;;;;;5096084;28;20825;-76
2021/06/20 01:08:22;;;;;;;16.13;7.13;;;26.50;99.90;;;;;;5096170;28;20247;-76
2021/06/20 01:10:48;;;;;;;17.33;6.70;;;26.60;99.90;;;;;;5095530;28;20561;-76
2021/06/20 01:13:16;;;;;;;17.27;6.60;;;26.60;99.90;;;;;;5088654;28;20288;-76
2021/06/20 01:15:45;;;;;;;10.73;7.60;;;26.60;99.90;;;;;;5076104;28;20647;-77
2021/06/20 01:18:12;;;;;;;20.23;7.00;;;26.60;99.90;;;;;;5074516;28;20500;-76
2021/06/20 01:20:38;;;;;;;12.30;7.20;;;26.70;99.90;;;;;;5075432;28;20399;-74
2021/06/20 01:23:05;;;;;;;20.13;8.00;;;26.70;99.90;;;;;;5090799;28;20423;-74
2021/06/20 01:25:31;;;;;;;14.80;6.53;;;26.60;99.90;;;;;;5077673;28;20426;-74
2021/06/20 01:28:03;;;;;;;16.93;8.60;;;26.60;99.90;;;;;;5091021;28;20425;-74
2021/06/20 01:30:31;;;;;;;14.47;7.80;;;26.50;99.90;;;;;;5088858;28;20425;-74
2021/06/20 01:32:59;;;;;;;23.07;7.43;;;26.60;99.90;;;;;;5075746;28;20426;-74
2021/06/20 01:35:26;;;;;;;17.03;8.27;;;26.50;99.90;;;;;;5084869;28;20426;-76
2021/06/20 01:37:59;;;;;;;12.53;7.80;;;26.60;99.90;;;;;;5079799;28;20460;-76
2021/06/20 01:40:25;;;;;;;16.93;7.93;;;26.50;99.90;;;;;;5075317;28;20885;-76
2021/06/20 01:42:58;;;;;;;17.90;7.60;;;26.50;99.90;;;;;;5080822;28;20750;-76
2021/06/20 01:45:26;;;;;;;13.93;7.83;;;26.40;99.90;;;;;;5075619;28;20476;-76
2021/06/20 01:47:55;;;;;;;15.40;7.43;;;26.40;99.90;;;;;;5075036;28;20401;-76
2021/06/20 01:50:21;;;;;;;17.10;7.40;;;26.40;99.90;;;;;;5091165;28;20501;-74
2021/06/20 01:52:47;;;;;;;16.97;8.67;;;26.40;99.90;;;;;;5075422;28;20433;-74
2021/06/20 01:55:15;;;;;;;19.93;7.40;;;26.40;99.90;;;;;;5074895;28;20507;-74
2021/06/20 01:57:43;;;;;;;16.47;8.10;;;26.40;99.90;;;;;;5075310;28;20502;-74
2021/06/20 02:00:16;;;;;;;17.30;7.73;;;26.40;99.90;;;;;;5075210;28;20403;-74
2021/06/20 02:02:42;;;;;;;19.80;7.60;;;26.30;99.90;;;;;;5089786;28;20415;-74
2021/06/20 02:05:27;;;;;;;15.63;7.63;;;26.30;99.90;;;;;;5084502;28;20425;-76
2021/06/20 02:07:53;;;;;;;16.43;6.93;;;26.40;99.90;;;;;;5074811;28;20416;-76
2021/06/20 02:10:19;;;;;;;19.10;7.40;;;26.30;99.90;;;;;;5076223;28;20423;-76
2021/06/20 02:12:45;;;;;;;18.43;7.47;;;26.30;99.90;;;;;;5094578;28;20203;-76
2021/06/20 02:15:11;;;;;;;17.57;6.57;;;26.30;99.90;;;;;;5094156;28;20197;-76
2021/06/20 02:17:38;;;;;;;19.27;8.07;;;26.40;99.90;;;;;;5094963;28;20166;-76
2021/06/20 02:20:12;;;;;;;15.80;7.50;;;26.40;99.90;;;;;;5095092;28;20488;-76
2021/06/20 02:22:39;;;;;;;39.67;8.30;;;26.30;99.90;;;;;;5093911;28;20416;-77
2021/06/20 02:25:12;;;;;;;21.70;8.00;;;26.30;99.90;;;;;;5094899;28;20414;-76
2021/06/20 02:27:39;;;;;;;13.83;7.17;;;26.30;99.90;;;;;;5082965;28;20433;-76
2021/06/20 02:30:06;;;;;;;15.53;7.23;;;26.30;99.90;;;;;;5074233;28;20396;-76
2021/06/20 02:32:32;;;;;;;20.13;7.63;;;26.30;99.90;;;;;;5086879;28;20431;-76
2021/06/20 02:35:00;;;;;;;24.00;7.23;;;26.30;99.90;;;;;;5086803;28;20460;-75
2021/06/20 02:37:26;;;;;;;27.90;8.40;;;26.30;99.90;;;;;;5074511;28;20600;-73
2021/06/20 02:39:52;;;;;;;27.43;7.43;;;26.20;99.90;;;;;;5074067;28;20408;-74
2021/06/20 02:42:19;;;;;;;18.50;6.90;;;26.20;99.90;;;;;;5079412;28;20423;-74
2021/06/20 02:44:45;;;;;;;17.47;6.90;;;26.20;99.90;;;;;;5073883;28;20415;-74
2021/06/20 02:47:12;;;;;;;10.83;6.40;;;26.20;99.90;;;;;;5082346;28;20976;-74
2021/06/20 02:49:39;;;;;;;17.33;6.70;;;26.20;99.90;;;;;;5094293;28;20404;-74
2021/06/20 02:52:06;;;;;;;18.10;6.70;;;26.10;99.90;;;;;;5085474;28;20427;-74
2021/06/20 02:54:32;;;;;;;17.77;6.93;;;26.10;99.90;;;;;;5073765;28;20436;-74
2021/06/20 02:56:58;;;;;;;10.80;6.50;;;26.10;99.90;;;;;;5072663;28;20443;-74
2021/06/20 02:59:25;;;;;;;16.50;6.30;;;26.00;99.90;;;;;;5073800;28;20218;-74
2021/06/20 03:01:51;;;;;;;14.10;7.00;;;26.00;99.90;;;;;;5081912;28;20409;-74
2021/06/20 03:04:17;;;;;;;20.63;5.70;;;25.90;99.90;;;;;;5073757;28;20415;-74
2021/06/20 03:06:46;;;;;;;13.40;5.83;;;25.90;99.90;;;;;;5073836;28;20420;-74
2021/06/20 03:09:12;;;;;;;19.37;6.97;;;25.90;99.90;;;;;;5073107;28;20182;-74
2021/06/20 03:11:41;;;;;;;21.47;5.80;;;25.80;99.90;;;;;;5071862;28;20565;-74
2021/06/20 03:14:11;;;;;;;14.20;5.57;;;25.70;99.90;;;;;;5073622;28;20166;-74
2021/06/20 03:16:37;;;;;;;20.77;4.87;;;25.60;99.90;;;;;;5073569;28;20465;-74
2021/06/20 03:19:04;;;;;;;18.27;5.33;;;25.50;99.90;;;;;;5073879;28;20416;-74
2021/06/20 03:21:30;;;;;;;16.90;4.80;;;;;;;;;;5073468;28;20397;-76
2021/06/20 03:23:58;;;;;;;10.43;4.70;;;25.40;99.90;;;;;;5073606;28;20772;-76
2021/06/20 03:26:24;;;;;;;20.73;4.83;;;25.40;99.90;;;;;;5073530;28;20892;-76
2021/06/20 03:28:49;;;;;;;21.00;4.80;;;25.30;99.90;;;;;;5073188;28;20420;-76
2021/06/20 03:31:34;;;;;;;18.20;5.10;;;25.30;99.90;;;;;;5073395;28;20886;-76
2021/06/20 03:34:04;;;;;;;11.73;4.90;;;25.30;99.90;;;;;;5073891;28;20276;-76
2021/06/20 03:36:29;;;;;;;10.43;3.80;;;25.30;99.90;;;;;;5088499;28;20958;-74
2021/06/20 03:38:55;;;;;;;14.53;3.70;;;25.20;99.90;;;;;;5073086;28;20401;-74
2021/06/20 03:41:21;;;;;;;9.33;3.70;;;25.20;99.90;;;;;;5085513;28;20165;-74
2021/06/20 03:43:47;;;;;;;10.77;3.30;;;25.20;99.90;;;;;;5073360;28;20783;-74
2021/06/20 03:46:13;;;;;;;7.03;3.03;;;25.20;99.90;;;;;;5073284;28;20169;-74
2021/06/20 03:48:46;;;;;;;9.40;2.80;;;25.20;99.90;;;;;;5072817;28;20271;-75
2021/06/20 03:51:12;;;;;;;9.27;3.30;;;25.20;99.90;;;;;;5089356;28;20531;-76
2021/06/20 03:53:37;;;;;;;9.17;3.40;;;25.20;99.90;;;;;;5091810;28;20429;-76
2021/06/20 03:56:04;;;;;;;10.23;2.83;;;25.20;99.90;;;;;;5072816;28;20470;-76
2021/06/20 03:58:34;;;;;;;9.63;2.77;;;25.20;99.90;;;;;;5073388;28;20207;-76
2021/06/20 04:01:00;;;;;;;13.03;3.20;;;25.20;99.90;;;;;;5072977;28;20859;-76
2021/06/20 04:03:25;;;;;;;7.80;2.60;;;25.10;99.90;;;;;;5072524;28;20418;-76
2021/06/20 04:05:54;;;;;;;6.83;3.07;;;25.10;99.90;;;;;;5088906;28;20175;-75
2021/06/20 04:08:22;;;;;;;8.80;2.90;;;25.10;99.90;;;;;;5081690;28;20276;-74
2021/06/20 04:10:48;;;;;;;19.00;3.27;;;25.10;99.90;;;;;;5086367;28;20604;-73
2021/06/20 04:13:45;;;;;;;6.50;3.10;;;25.10;99.90;;;;;;5091798;28;20570;-82
2021/06/20 04:16:51;;;;;;;6.30;2.77;;;25.10;99.90;;;;;;5092813;28;20416;-83
2021/06/20 04:19:22;;;;;;;11.13;2.93;;;25.10;99.90;;;;;;5072814;28;20401;-76
2021/06/20 04:21:47;;;;;;;8.93;3.10;;;25.10;99.90;;;;;;5074182;28;20426;-74
2021/06/20 04:24:22;;;;;;;27.93;4.13;;;25.10;99.90;;;;;;5072632;28;20392;-73
2021/06/20 04:27:04;;;;;;;6.90;2.90;;;25.10;99.90;;;;;;5074401;28;20198;-73
2021/06/20 04:29:29;;;;;;;13.77;3.10;;;25.10;99.90;;;;;;5073029;28;20422;-73
2021/06/20 04:31:55;;;;;;;10.53;3.33;;;25.10;99.90;;;;;;5075890;28;20452;-73
2021/06/20 04:34:21;;;;;;;15.90;3.13;;;25.10;99.90;;;;;;5076673;28;20506;-73
2021/06/20 04:36:52;;;;;;;10.30;2.87;;;25.10;99.90;;;;;;5077080;28;20208;-76
2021/06/20 04:39:28;;;;;;;8.40;3.03;;;25.10;99.90;;;;;;5076929;28;20170;-76
2021/06/20 04:41:58;;;;;;;11.80;3.37;;;25.10;99.90;;;;;;5076411;28;20384;-76
2021/06/20 04:44:43;;;;;;;8.90;3.10;;;25.10;99.90;;;;;;5076151;28;20886;-77
2021/06/20 04:47:18;;;;;;;7.90;3.30;;;25.00;99.90;;;;;;5076600;28;20421;-76
2021/06/20 04:49:46;;;;;;;10.70;3.20;;;25.00;99.90;;;;;;5076382;28;20413;-77
2021/06/20 04:52:16;;;;;;;8.10;2.80;;;25.00;99.90;;;;;;5076949;28;20386;-77
2021/06/20 04:54:50;;;;;;;7.83;3.17;;;24.90;99.90;;;;;;5076629;28;20761;-76
2021/06/20 04:57:29;;;;;;;13.60;3.47;;;24.90;99.90;;;;;;5096599;28;20406;-77
2021/06/20 05:00:01;;;;;;;23.93;2.93;;;24.80;99.90;;;;;;5076361;28;20387;-77
2021/06/20 05:02:34;;;;;;;8.50;2.47;;;24.80;99.90;;;;;;5075538;28;20465;-76
2021/06/20 05:05:01;;;;;;;14.93;2.97;;;24.70;99.90;;;;;;5093474;28;20426;-76
2021/06/20 05:07:27;;;;;;;6.50;2.87;;;;;;;;;;5093510;28;20419;-72
2021/06/20 05:09:58;;;;;;;9.90;3.50;;;24.60;99.90;;;;;;5076056;28;20395;-73
2021/06/20 05:12:28;;;;;;;10.30;2.97;;;24.60;99.90;;;;;;5075885;28;20793;-73
2021/06/20 05:14:58;;;;;;;6.47;2.87;;;24.60;99.90;;;;;;5084220;28;20455;-76
2021/06/20 05:17:28;;;;;;;7.30;3.47;;;24.60;99.90;;;;;;5074642;28;20781;-77
2021/06/20 05:19:53;;;;;;;5.50;3.10;;;24.60;99.90;;;;;;5077081;28;20904;-76
2021/06/20 05:22:22;;;;;;;4.90;2.80;;;24.50;99.90;;;;;;5089598;28;20416;-76
2021/06/20 05:24:52;;;;;;;13.73;2.97;;;24.60;99.90;;;;;;5076117;28;20200;-77
2021/06/20 05:27:22;;;;;;;8.00;3.33;;;24.50;99.90;;;;;;5080710;28;20782;-76
2021/06/20 05:30:09;;;;;;;10.27;3.20;;;24.60;99.90;;;;;;5082075;28;20437;-76
2021/06/20 05:32:49;;;;;;;7.60;2.20;;;24.70;99.90;;;;;;5081943;28;20781;-76
2021/06/20 05:35:16;;;;;;;15.13;4.37;;;24.80;99.90;;;;;;5075413;28;20993;-77
2021/06/20 05:37:52;;;;;;;13.87;3.30;;;24.90;99.90;;;;;;5085407;28;20419;-76
2021/06/20 05:40:18;;;;;;;6.27;3.27;;;;;;;;;;5089130;28;20424;-76
2021/06/20 05:42:43;;;;;;;5.80;2.70;;;24.90;99.90;;;;;;5075560;28;20396;-76
2021/06/20 05:45:10;;;;;;;7.83;3.70;;;25.00;99.90;;;;;;5092223;28;20816;-76
2021/06/20 05:47:36;;;;;;;7.57;3.53;;;24.90;99.90;;;;;;5092255;28;20603;-76
2021/06/20 05:50:02;;;;;;;15.90;2.83;;;24.90;99.90;;;;;;5075326;28;20432;-76
2021/06/20 05:52:34;;;;;;;4.40;2.80;;;24.90;99.90;;;;;;5075717;28;20191;-76
2021/06/20 05:54:59;;;;;;;8.40;3.07;;;24.80;99.90;;;;;;5075484;28;20474;-77
2021/06/20 05:57:28;;;;;;;6.17;2.60;;;24.80;99.90;;;;;;5075106;28;20507;-76
2021/06/20 05:59:58;;;;;;;9.40;3.40;;;24.60;99.90;;;;;;5084183;28;20172;-76
2021/06/20 06:02:28;;;;;;;11.43;3.00;;;24.60;99.90;;;;;;5079975;28;20421;-76
2021/06/20 06:04:53;;;;;;;5.93;3.00;;;24.60;99.90;;;;;;5088501;28;20513;-76
2021/06/20 06:07:19;;;;;;;9.77;3.73;;;24.70;99.90;;;;;;5094191;28;20501;-74
2021/06/20 06:09:45;;;;;;;6.13;2.80;;;24.60;99.90;;;;;;5094746;28;20177;-73
2021/06/20 06:12:11;;;;;;;9.43;3.37;;;;;;;;;;5093588;28;20168;-74
2021/06/20 06:14:36;;;;;;;6.73;2.83;;;24.60;99.90;;;;;;5082790;28;20177;-73
2021/06/20 06:17:02;;;;;;;4.40;2.80;;;24.60;99.90;;;;;;5074568;28;20707;-74
2021/06/20 06:19:28;;;;;;;9.13;3.57;;;24.60;99.90;;;;;;5074617;28;20182;-74
2021/06/20 06:21:54;;;;;;;7.20;3.70;;;24.80;99.90;;;;;;5073681;28;20420;-74
2021/06/20 06:24:34;;;;;;;8.70;3.43;;;24.90;99.90;;;;;;5073770;28;20436;-75
2021/06/20 06:27:00;;;;;;;9.23;3.50;;;;;;;;;;5073670;28;20208;-75
2021/06/20 06:29:26;;;;;;;5.93;3.37;;;;;;;;;;5086367;28;20518;-76
2021/06/20 06:31:52;;;;;;;7.03;4.53;;;25.10;99.90;;;;;;5094186;28;20412;-75
2021/06/20 06:34:17;;;;;;;7.07;3.50;;;25.20;99.90;;;;;;5093801;28;20404;-75
2021/06/20 06:36:46;;;;;;;7.80;4.00;;;25.40;99.90;;;;;;5074317;28;20993;-76
2021/06/20 06:39:16;;;;;;;5.07;3.70;;;25.50;99.90;;;;;;5074852;28;20608;-75
2021/06/20 06:41:58;;;;;;;10.87;4.60;;;25.50;99.90;;;;;;5074331;28;20413;-75
2021/06/20 06:44:26;;;;;;;16.90;4.13;;;25.60;99.90;;;;;;5074179;28;20412;-75
2021/06/20 06:46:52;;;;;;;8.23;4.50;;;25.70;99.90;;;;;;5074425;28;20405;-75
2021/06/20 06:49:18;;;;;;;15.63;3.77;;;25.60;99.90;;;;;;5074208;28;20486;-75
2021/06/20 06:51:43;;;;;;;19.23;3.87;;;25.70;99.90;;;;;;5083965;28;20502;-76
2021/06/20 06:54:10;;;;;;;6.87;3.87;;;25.80;99.90;;;;;;5087294;28;20447;-74
2021/06/20 06:56:36;;;;;;;4.27;3.43;;;25.80;99.90;;;;;;5072707;28;20270;-74
2021/06/20 06:59:02;;;;;;;11.83;3.43;;;25.90;99.90;;;;;;5082684;28;20414;-74
2021/06/20 07:01:29;;;;;;;6.77;3.80;;;25.90;99.90;;;;;;5094127;28;20404;-74
2021/06/20 07:03:55;;;;;;;11.83;3.90;;;25.90;99.90;;;;;;5093678;28;20393;-74
2021/06/20 07:06:21;;;;;;;7.57;3.10;;;25.80;99.90;;;;;;5087233;28;20441;-74
2021/06/20 07:08:47;;;;;;;12.40;3.57;;;25.90;99.90;;;;;;5087561;28;21117;-76
2021/06/20 07:11:13;;;;;;;8.77;4.17;;;26.00;99.90;;;;;;5074010;28;20553;-76
2021/06/20 07:13:39;;;;;;;10.17;4.37;;;26.00;99.90;;;;;;5077420;28;20434;-76
2021/06/20 07:16:06;;;;;;;9.13;3.37;;;26.10;99.90;;;;;;5073990;28;20852;-75
2021/06/20 07:18:32;;;;;;;4.50;3.37;;;26.10;99.90;;;;;;5071932;28;20467;-76
2021/06/20 07:20:59;;;;;;;6.47;3.17;;;26.30;99.90;;;;;;5073793;28;20431;-76
2021/06/20 07:23:28;;;;;;;5.23;3.90;;;26.40;99.90;;;;;;5075924;28;20426;-75
2021/06/20 07:25:58;;;;;;;8.30;3.40;;;26.50;99.90;;;;;;5073655;28;20415;-80
2021/06/20 07:28:24;;;;;;;9.87;3.50;;;26.50;99.90;;;;;;5072900;28;20423;-79
2021/06/20 07:30:50;;;;;;;11.13;3.57;;;26.60;99.90;;;;;;5072565;28;20763;-80
2021/06/20 07:33:19;;;;;;;10.47;4.10;;;26.50;99.90;;;;;;5076733;28;20419;-80
2021/06/20 07:35:51;;;;;;;6.17;3.20;;;26.60;99.90;;;;;;5091940;28;20446;-80
2021/06/20 07:38:17;;;;;;;10.10;3.50;;;26.60;99.90;;;;;;5092359;28;20425;-80
2021/06/20 07:40:43;;;;;;;22.20;4.20;;;26.60;99.90;;;;;;5091496;28;20809;-80
2021/06/20 07:43:09;;;;;;;9.60;3.30;;;26.70;99.90;;;;;;5090424;28;20444;-79
2021/06/20 07:45:36;;;;;;;14.07;3.37;;;26.70;99.90;;;;;;5092275;28;20183;-80
2021/06/20 07:48:03;;;;;;;8.17;3.07;;;;;;;;;;5092508;28;20156;-80
2021/06/20 07:50:28;;;;;;;95.70;5.87;;;26.60;99.90;;;;;;5083504;28;20419;-80
2021/06/20 07:52:54;;;;;;;12.77;3.30;;;26.70;99.90;;;;;;5090023;28;20427;-80
2021/06/20 07:55:20;;;;;;;12.90;3.57;;;26.60;99.90;;;;;;5091182;28;20224;-80
2021/06/20 07:57:46;;;;;;;7.10;3.67;;;;;;;;;;5090853;28;20173;-80
2021/06/20 08:00:12;;;;;;;8.97;3.50;;;26.70;99.90;;;;;;5073055;28;20179;-78
2021/06/20 08:02:41;;;;;;;5.33;3.97;;;26.70;99.90;;;;;;5071244;28;20439;-80
2021/06/20 08:05:07;;;;;;;5.30;3.20;;;26.70;99.90;;;;;;5073004;28;20424;-80
2021/06/20 08:07:34;;;;;;;7.80;3.30;;;26.60;99.90;;;;;;5075350;28;20419;-80
2021/06/20 08:10:33;;;;;;;5.47;3.10;;;26.70;99.90;;;;;;5081173;28;20918;-81
2021/06/20 08:12:59;;;;;;;8.63;3.30;;;27.00;99.90;;;;;;5072321;28;20425;-80
2021/06/20 08:15:25;;;;;;;5.83;2.93;;;27.10;99.90;;;;;;5072521;28;20452;-80
2021/06/20 08:17:52;;;;;;;5.40;2.53;;;27.20;99.90;;;;;;5072625;28;20191;-80
2021/06/20 08:20:18;;;;;;;5.80;3.23;;;27.30;99.90;;;;;;5075153;28;20174;-80
2021/06/20 08:22:44;;;;;;;9.00;3.10;;;27.40;99.90;;;;;;5072595;28;20393;-80
2021/06/20 08:25:16;;;;;;;10.53;3.50;;;27.60;99.90;;;;;;5073173;28;20175;-80
2021/06/20 08:27:58;;;;;;;12.70;2.97;;;27.80;99.90;;;;;;5071557;28;20428;-81
2021/06/20 08:30:28;;;;;;;5.97;3.17;;;28.00;99.90;;;;;;5072755;28;20485;-78
2021/06/20 08:32:59;;;;;;;6.33;3.30;;;28.00;99.90;;;;;;5080038;28;20433;-77
2021/06/20 08:36:15;;;;;;;6.40;2.97;;;28.00;99.90;;;;;;5092679;28;20854;-79
2021/06/20 08:38:46;;;;;;;6.03;2.80;;;28.00;99.90;;;;;;5090347;28;20441;-76
2021/06/20 08:41:32;;;;;;;17.13;4.37;;;27.80;99.90;;;;;;5092380;28;20410;-77
2021/06/20 08:44:14;;;;;;;4.83;2.90;;;27.90;99.90;;;;;;5092906;28;20752;-77
2021/06/20 08:46:42;;;;;;;10.10;2.90;;;27.90;99.90;;;;;;5092163;28;20459;-78
2021/06/20 08:49:16;;;;;;;8.20;2.60;;;28.00;99.90;;;;;;5091572;28;20428;-77
2021/06/20 08:51:48;;;;;;;24.30;3.00;;;27.90;99.90;;;;;;5092848;28;20410;-76
2021/06/20 08:54:16;;;;;;;31.20;3.87;;;27.70;99.90;;;;;;5093236;28;20781;-78
2021/06/20 08:56:42;;;;;;;19.60;3.30;;;;;;;;;;5092335;28;20973;-79
2021/06/20 08:59:11;;;;;;;9.13;3.03;;;27.60;99.90;;;;;;5077713;28;20428;-76
2021/06/20 09:01:40;;;;;;;6.57;2.67;;;27.60;99.90;;;;;;5086032;28;20848;-77
2021/06/20 09:04:06;;;;;;;10.67;3.70;;;27.60;99.90;;;;;;5072868;28;20393;-77
2021/06/20 09:06:32;;;;;;;7.27;3.07;;;27.60;99.90;;;;;;5072411;28;20402;-76
2021/06/20 09:09:04;;;;;;;6.33;2.97;;;27.80;99.90;;;;;;5092926;28;20413;-75
2021/06/20 09:11:36;;;;;;;12.90;3.20;;;28.00;99.90;;;;;;5091174;28;20430;-74
2021/06/20 09:14:16;;;;;;;3.33;2.40;;;28.30;99.90;;;;;;5087413;28;20922;-79
2021/06/20 09:16:49;;;;;;;2.80;2.60;;;28.60;99.90;;;;;;5072158;28;20488;-76
2021/06/20 09:19:15;;;;;;;26.30;3.93;;;28.80;99.90;;;;;;5084255;28;20416;-76
2021/06/20 09:21:55;;;;;;;5.37;3.43;;;28.90;99.90;;;;;;5095708;28;20396;-75
2021/06/20 09:24:21;;;;;;;6.83;3.40;;;28.90;99.90;;;;;;5081682;28;20482;-74
2021/06/20 09:26:53;;;;;;;4.10;3.20;;;28.90;99.90;;;;;;5075583;28;20399;-74
2021/06/20 09:29:42;;;;;;;9.90;3.80;;;28.90;99.90;;;;;;5081599;28;20428;-76
2021/06/20 09:32:09;;;;;;;6.27;3.60;;;29.00;99.90;;;;;;5092573;28;20435;-74
2021/06/20 09:34:50;;;;;;;3.23;2.93;;;28.90;99.90;;;;;;5082871;28;20408;-74
2021/06/20 09:37:20;;;;;;;6.20;3.57;;;29.00;99.90;;;;;;5075559;28;20922;-74
2021/06/20 09:39:47;;;;;;;13.53;4.20;;;29.30;99.90;;;;;;5074341;28;20968;-76
2021/06/20 09:42:14;;;;;;;5.37;3.73;;;29.40;99.90;;;;;;5075551;28;20405;-76
2021/06/20 09:44:49;;;;;;;5.83;3.20;;;29.50;99.90;;;;;;5075826;28;20399;-76
2021/06/20 09:47:17;;;;;;;6.20;3.63;;;29.70;99.90;;;;;;5074019;28;20428;-76
2021/06/20 09:49:48;;;;;;;6.43;2.97;;;30.00;99.90;;;;;;5074272;28;20446;-76
2021/06/20 09:52:24;;;;;;;9.23;3.50;;;30.10;99.90;;;;;;5074391;28;20423;-76
2021/06/20 09:54:54;;;;;;;6.27;3.90;;;30.40;99.90;;;;;;5074852;28;20435;-76
2021/06/20 09:57:21;;;;;;;11.20;3.17;;;30.70;99.90;;;;;;5074102;28;20433;-76
2021/06/20 09:59:57;;;;;;;11.30;3.73;;;30.80;99.90;;;;;;5074282;28;20425;-76
2021/06/20 10:02:26;;;;;;;4.00;3.30;;;30.70;99.90;;;;;;5073540;28;20428;-76
2021/06/20 10:04:52;;;;;;;8.27;3.50;;;30.60;99.90;;;;;;5074285;28;20401;-76
2021/06/20 10:07:18;;;;;;;6.77;3.63;;;30.50;99.90;;;;;;5073964;28;20408;-76
2021/06/20 10:09:43;;;;;;;11.33;3.53;;;30.40;99.90;;;;;;5073210;28;20193;-74
2021/06/20 10:12:09;;;;;;;8.57;3.80;;;30.30;99.90;;;;;;5073562;28;20407;-74
2021/06/20 10:14:42;;;;;;;9.40;3.63;;;30.10;99.90;;;;;;5073801;28;20165;-74
2021/06/20 10:17:11;;;;;;;3.43;3.10;;;29.90;99.90;;;;;;5073970;28;20162;-74
2021/06/20 10:19:41;;;;;;;4.77;3.50;;;29.90;99.90;;;;;;5073421;28;20428;-74
2021/06/20 10:22:09;;;;;;;7.20;3.50;;;30.00;99.90;;;;;;5074052;28;20890;-74
2021/06/20 10:24:53;;;;;;;9.10;3.57;;;29.80;99.90;;;;;;5073978;28;20410;-76
2021/06/20 10:27:28;;;;;;;6.33;3.97;;;29.80;99.90;;;;;;5073756;28;20488;-76
2021/06/20 10:29:55;;;;;;;5.60;3.37;;;29.80;99.90;;;;;;5073848;28;20409;-76
2021/06/20 10:32:22;;;;;;;7.03;2.97;;;29.80;99.90;;;;;;5073970;28;20461;-76
2021/06/20 10:34:59;;;;;;;3.10;2.73;;;29.80;99.90;;;;;;5072905;28;20799;-77
2021/06/20 10:37:37;;;;;;;7.63;3.30;;;29.70;99.90;;;;;;5088461;28;20430;-76
2021/06/20 10:40:25;;;;;;;7.67;3.43;;;29.80;99.90;;;;;;5074667;28;20454;-75
2021/06/20 10:42:53;;;;;;;7.77;3.30;;;29.80;99.90;;;;;;5093074;28;20813;-75
2021/06/20 10:46:03;;;;;;;8.73;4.03;;;29.40;99.90;;;;;;5074317;28;20405;-78
2021/06/20 10:48:46;;;;;;;16.17;3.77;;;29.70;99.90;;;;;;5073932;28;20391;-77
2021/06/20 10:51:30;;;;;;;4.30;3.13;;;29.80;99.90;;;;;;5092257;28;20406;-76
2021/06/20 10:53:56;;;;;;;6.80;3.13;;;29.70;99.90;;;;;;5092087;28;20472;-74
2021/06/20 10:56:30;;;;;;;5.60;2.90;;;30.10;99.90;;;;;;5093903;28;20519;-74
2021/06/20 10:58:59;;;;;;;7.67;2.70;;;30.10;99.90;;;;;;5092974;28;20180;-74
2021/06/20 11:01:28;;;;;;;7.83;3.20;;;30.30;99.90;;;;;;5093753;28;20402;-74
2021/06/20 11:03:54;;;;;;;5.97;3.63;;;30.30;99.90;;;;;;5093974;28;20404;-76
2021/06/20 11:06:21;;;;;;;6.67;3.30;;;30.60;99.90;;;;;;5075953;28;20417;-76
2021/06/20 11:08:56;;;;;;;3.77;2.57;;;30.50;99.90;;;;;;5072165;28;20339;-75
2021/06/20 11:11:47;;;;;;;10.83;2.80;;;30.70;99.90;;;;;;5073654;28;20420;-76
2021/06/20 11:14:13;;;;;;;3.47;2.40;;;30.70;99.90;;;;;;5073809;28;20406;-75
2021/06/20 11:16:45;;;;;;;6.13;2.70;;;31.40;99.90;;;;;;5071887;28;20449;-75
2021/06/20 11:19:44;;;;;;;6.33;2.53;;;31.60;99.90;;;;;;5074494;28;20158;-75
2021/06/20 11:22:16;;;;;;;5.33;2.40;;;31.70;99.90;;;;;;5071290;28;20444;-77
2021/06/20 11:24:46;;;;;;;5.60;2.20;;;31.90;99.90;;;;;;5070973;28;20464;-77
2021/06/20 11:27:18;;;;;;;13.47;2.67;;;32.10;99.90;;;;;;5054948;28;20948;-76
2021/06/20 11:29:55;;;;;;;5.30;2.67;;;32.20;99.90;;;;;;5071423;28;20505;-77
2021/06/20 11:32:35;;;;;;;9.83;3.27;;;32.10;99.90;;;;;;5070001;28;20491;-77
2021/06/20 11:35:11;;;;;;;6.90;2.57;;;31.90;99.90;;;;;;5060617;28;20462;-76
2021/06/20 11:37:39;;;;;;;10.53;2.77;;;31.50;99.90;;;;;;5068371;28;20432;-75
2021/06/20 11:40:08;;;;;;;9.10;3.67;;;31.30;99.90;;;;;;5050565;28;20507;-74
2021/06/20 11:42:38;;;;;;;7.77;2.60;;;31.10;99.90;;;;;;5055752;28;20495;-74
2021/06/20 11:45:13;;;;;;;7.00;2.80;;;30.90;99.90;;;;;;5067394;28;20494;-73
2021/06/20 11:47:53;;;;;;;5.03;3.10;;;30.90;99.90;;;;;;5053879;28;20808;-72
2021/06/20 11:50:23;;;;;;;4.50;2.50;;;30.90;99.90;;;;;;5070814;28;20408;-73
2021/06/20 11:52:51;;;;;;;3.17;2.30;;;30.70;99.90;;;;;;5052027;28;20488;-73
2021/06/20 11:55:20;;;;;;;3.17;2.53;;;30.70;99.90;;;;;;5050750;28;20568;-76
2021/06/20 11:57:47;;;;;;;6.27;2.70;;;30.90;99.90;;;;;;5062413;28;20815;-74
2021/06/20 12:00:14;;;;;;;3.43;2.60;;;30.90;99.90;;;;;;5091902;28;20797;-73
2021/06/20 12:02:41;;;;;;;9.80;3.30;;;30.80;99.90;;;;;;5087030;28;20422;-73
2021/06/20 12:05:12;;;;;;;3.60;2.90;;;30.80;99.90;;;;;;5087063;28;20422;-73
2021/06/20 12:07:38;;;;;;;3.13;2.50;;;31.10;99.90;;;;;;5091825;28;20904;-73
2021/06/20 12:10:05;;;;;;;4.80;3.53;;;31.00;99.90;;;;;;5091997;28;20920;-73
2021/06/20 12:12:32;;;;;;;12.03;3.20;;;31.00;99.90;;;;;;5080161;28;20469;-76
2021/06/20 12:15:00;;;;;;;4.13;2.83;;;30.90;99.90;;;;;;5089570;28;20416;-75
2021/06/20 12:17:28;;;;;;;5.00;2.97;;;30.70;99.90;;;;;;5091367;28;20915;-75
2021/06/20 12:19:54;;;;;;;6.50;2.90;;;30.60;99.90;;;;;;5093057;28;20426;-74
2021/06/20 12:22:21;;;;;;;4.70;2.63;;;30.50;99.90;;;;;;5092597;28;20396;-74
2021/06/20 12:24:58;;;;;;;5.10;2.67;;;30.60;99.90;;;;;;5082703;28;20459;-74
2021/06/20 12:27:28;;;;;;;5.87;2.70;;;30.60;99.90;;;;;;5072691;28;20427;-74
2021/06/20 12:29:54;;;;;;;5.73;3.13;;;30.70;99.90;;;;;;5071734;28;20490;-74
2021/06/20 12:32:20;;;;;;;13.73;3.27;;;30.80;99.90;;;;;;5072049;28;20907;-75
2021/06/20 12:34:47;;;;;;;5.50;2.70;;;31.00;99.90;;;;;;5079367;28;20179;-75
2021/06/20 12:37:13;;;;;;;5.87;2.93;;;30.60;99.90;;;;;;5078640;28;20499;-75
2021/06/20 12:39:51;;;;;;;3.73;3.00;;;30.60;99.90;;;;;;5072019;28;20421;-75
2021/06/20 12:42:17;;;;;;;7.53;2.53;;;30.60;99.90;;;;;;5080739;28;20796;-75
2021/06/20 12:44:53;;;;;;;3.00;2.50;;;30.70;99.90;;;;;;5088447;28;20416;-75
2021/06/20 12:47:34;;;;;;;10.90;2.10;;;31.00;99.90;;;;;;5092520;28;20925;-75
2021/06/20 12:50:01;;;;;;;6.80;2.33;;;31.00;99.90;;;;;;5084609;28;20875;-75
2021/06/20 12:52:32;;;;;;;2.73;2.33;;;31.00;99.90;;;;;;5083633;28;20470;-76
2021/06/20 12:54:59;;;;;;;7.73;3.20;;;31.10;99.90;;;;;;5077004;28;20502;-76
2021/06/20 12:57:31;;;;;;;7.93;2.30;;;31.20;99.90;;;;;;5084880;28;20474;-72
2021/06/20 13:00:08;;;;;;;5.77;2.73;;;31.20;99.90;;;;;;5096799;28;20392;-73